Estación Meteorológica Peña el Pijo (Robertgarden) [ 12/16/19 00:35:28 CET ]

Fecha Hora Presion(HPa) Temp (°C) Humedad % Rocio (°C) Viento ( m/s) Direccion Lluvia 1Hora(mm) Lluvia 24H(mm) LLuvia Total(mm)
2019-Sep-11 01:01:43 1008.800 10.5 64 3.9       0.51 392.35
2019-Sep-11 02:01:41 1008.600 9.9 67 4.0       0.51 392.35
2019-Sep-11 03:08:11 1008.000 9.8 68 4.2       0.51 392.35
2019-Sep-11 04:01:38 1007.800 9.7 69 4.3       0.51 392.35
2019-Sep-11 05:01:37 1007.300 10.2 69 4.8       0.51 392.35
2019-Sep-11 06:01:41 1007.000 10.2 69 4.8 2.4 N   0.51 392.35
2019-Sep-11 07:01:39 1007.600 10.4 69 5.0       0.51 392.35
2019-Sep-11 08:01:38 1008.000 10.6 68 4.9       0.51 392.35
2019-Sep-11 09:01:41 1008.400 10.4 72 5.6       0.51 392.35
2019-Sep-11 10:01:45 1008.700 11.2 73 6.5       0.51 392.35
2019-Sep-11 11:01:42 1009.500 11.9 72 7.0       0.51 392.35
2019-Sep-11 12:01:47 1010.100 12.3 74 7.8     0.51 1.03 392.87
2019-Sep-11 13:02:01 1010.100 13.8 73 9.0       1.03 392.87
2019-Sep-11 14:01:44 1010.300 16.1 59 8.1 1.9 WSW   1.03 392.87
2019-Sep-11 15:01:44 1010.900 15.3 60 7.6       1.03 392.87
2019-Sep-11 16:01:42 1011.000 12.8 73 8.1       1.03 392.87
2019-Sep-11 17:01:44 1010.900 15.3 69 9.7       1.03 392.87
2019-Sep-11 18:01:28 1010.800 17.2 61 9.6       1.03 392.87
2019-Sep-11 19:01:48 1011.000 15.9 61 8.4       1.03 392.87
2019-Sep-11 20:01:48 1012.000 14.9 64 8.1       1.03 392.87
2019-Sep-11 21:01:42 1013.200 14.1 67 8.0       1.03 392.87
2019-Sep-11 22:01:38 1013.900 13.6 70 8.2       1.03 392.87
2019-Sep-11 23:01:42 1014.300 13.3 72 8.3 2.6 S   0.51 392.87

Temperatura Máxima:17°    Temperatura Mínima:
Presión Máxima:1014.300 Hpa    Presión Mínima:1007.000 Hpa


Volver